Hauptseite
METAR-TAF:

METAR-TAF

Flughäfen :

Hohenfels, Deutschland

Breite: 49-13N, Länge: 011-50E, Höhe: 442 m

Beobachtung

Neuester Wetterbericht von vor 59 Minuten, um 12:56 UTC
Wind 8 kt aus Ost/Nordost, Böen bis zu 16 kt
Temperatur -1°C
Luftfeuchtigkeit 64%
Luftdruck 1020 hPa
Sichtweite 10 km oder mehr
Himmel klar

METAR: ETIH 241256Z AUTO 06008G16KT 9999 CLR M01/M07 A3013 RMK AO2 SLP236 T10101070 $

Zeit: 14:55 (13:55 UTC)


TAF: fehlend

Wetterbeobachtungen und Prognosen von mehr als 4000 Flughäfen (METAR und TAF Bericht).

Die verfügbaren Stationen werden durch gelbe und rote Markierungen auf der Karte dargestellt.

Führen Sie die Maus auf sie, um den Namen der Station zu sehen.

Darauf klicken, um die Beobachtung von Wetterbeobachtungen und Prognosen zu sehen.

Um die Karte zu ändern : klicken Sie auf den grünen Tasten mit einem schwarzen Kreuz Zum Vergrößern, auf den grünen Button mit einem Gedankenstrich zu verkleinern, oder auf die grünen Pfeile für benachbarte Karten.


METAR-TAF: